Kezdőlap
METAR-TAF:

METAR-TAF

Repülőterek :

Jakutszk, Oroszország

földrajzi szélesség: 62-01N, földrajzi hosszúság: 129-43E, magasság: 103 m

Jelenlegi meteorológiai megfigyelések

A jelentés 28 perccel ezelõtt készült, 19:30 UTC
Déli szél 2 kt
Hőmérséklet -25°C
Páratartalom 76%
Légköri nyomás 1017 hPa
Látótávolság 10 km, vagy több
enyhe havazás

METAR: UEEE 161930Z 18001MPS 9999 -SN NSC M25/M28 Q1017 R23L/490155 NOSIG RMK QFE754

Idő: 04:58 (19:58 UTC)

Előrejelzés

A jelentés 2 órával és 58 perccel ezelõtt készült, 17:00 UTC
Az előrejelzés 16-én 18 óra UTC és 17-én 24 óra UTC között érvényes
Különbözõ irányokból fújó szél 2 kt
Látótávolság: 3200 m
Borult 7000 lábon
enyhe havazás, Párásság
16-én 18 óra UTC és 17-én 03 óra UTC között ideiglenes
Látótávolság: 0300 m
200 lábon
zúzmarás köd

TAF: UEEE 161700Z 1618/1724 VRB01MPS 3200 -SN BR OVC070 TEMPO 1618/1703 0300 FZFG VV002

Meteorológiai megfigyelések és előrejelzések több, mint 4000 repülőtéren (METAR és TAF jelentéseket).

A térképen piros és sárga pontok jelzik az elérhető meteorológiai állomásokat.

Mozgassa az egeret a pont fölött, hogy megjelenjen az állomás neve.

Azután kattintson az időjárási megfigyelések és előrejelzések megtekintéséhez.

A térkép megváltoztatása: kattintson a fekete keresztel jelölt zöld gombra ráközelítéshez, a vonallal jelölt zöld gombra távolításhoz, vagy a zöld nyilakra a szomszédos térképek eléréséhez.


METAR-TAF: